Time;durP1;ratioP1;P1;durP2;ratioP2;P2;SDS_P1;SDS_P2;PMS_P1;PMS_P2;Temp;Humidity;BMP_temperature;BMP_pressure;BME280_temperature;BME280_humidity;BME280_pressure;Samples;Min_cycle;Max_cycle;Signal;HPM_P1;HPM_P2
2022/10/11 00:04:56;;;;;;;19.93;11.70;;;;;;;9.95;90.58;100679.74;3813909;76;98913;-85
2022/10/11 00:09:56;;;;;;;24.20;13.07;;;;;;;9.93;90.63;100681.27;3822390;76;27109;-85
2022/10/11 00:14:57;;;;;;;24.10;12.93;;;;;;;9.86;90.68;100688.80;3815156;76;98663;-85
2022/10/11 00:19:58;;;;;;;20.90;11.87;;;;;;;9.83;90.90;100695.61;3811749;77;34868;-85
2022/10/11 00:24:59;;;;;;;20.53;12.60;;;;;;;9.81;91.23;100697.34;3814159;76;98455;-85
2022/10/11 00:30:01;;;;;;;21.97;11.60;;;;;;;9.78;91.20;100703.59;3821355;77;35073;-85
2022/10/11 00:35:05;;;;;;;21.27;12.30;;;;;;;9.76;91.35;100716.11;3812040;77;98534;-86
2022/10/11 00:40:12;;;;;;;20.80;11.47;;;;;;;9.70;91.19;100724.44;3795722;77;35389;-84
2022/10/11 00:45:36;;;;;;;20.60;10.75;;;;;;;9.64;91.45;100732.17;3810141;76;98877;-85
2022/10/11 00:50:37;;;;;;;18.82;11.05;;;;;;;9.60;91.81;100734.05;3807711;77;31544;-84
2022/10/11 00:55:58;;;;;;;18.10;10.97;;;;;;;9.57;92.72;100733.41;3814899;76;98592;-85
2022/10/11 01:00:59;;;;;;;23.27;12.53;;;;;;;9.56;92.91;100744.19;3818022;76;30869;-84
2022/10/11 01:06:00;;;;;;;21.73;12.17;;;;;;;9.52;94.05;100748.81;3806824;76;98546;-84
2022/10/11 01:11:01;;;;;;;23.60;13.10;;;;;;;9.51;94.14;100750.54;3812209;77;35473;-84
2022/10/11 01:16:16;;;;;;;22.53;12.10;;;;;;;9.51;94.68;100759.59;3802602;76;98520;-84
2022/10/11 01:21:34;;;;;;;20.55;12.07;;;;;;;9.56;95.82;100763.42;3802405;77;31578;-85
2022/10/11 01:26:44;;;;;;;18.07;10.95;;;;;;;9.63;96.64;100768.25;3800155;77;98562;-84
2022/10/11 01:32:21;;;;;;;19.27;11.75;;;;;;;9.71;97.00;100759.78;3810649;76;31620;-84
2022/10/11 01:37:33;;;;;;;18.77;10.82;;;;;;;9.80;97.20;100768.61;3752951;76;98373;-85
2022/10/11 01:42:38;;;;;;;20.07;11.50;;;;;;;9.89;97.07;100780.75;3763595;77;98885;-85
2022/10/11 01:47:41;;;;;;;21.37;11.40;;;;;;;9.99;97.83;100774.66;3713004;79;31149;-85
2022/10/11 01:52:44;;;;;;;20.68;10.60;;;;;;;10.08;97.80;100785.67;3702867;77;99171;-84
2022/10/11 01:58:03;;;;;;;21.02;10.72;;;;;;;10.18;98.08;100789.77;3702362;79;32232;-85
2022/10/11 02:03:18;;;;;;;17.27;10.55;;;;;;;10.27;97.61;100793.89;3660913;78;99270;-85
2022/10/11 02:08:48;;;;;;;19.62;10.53;;;;;;;10.36;97.47;100806.03;3731467;78;32259;-85
2022/10/11 02:14:23;;;;;;;21.30;9.80;;;;;;;10.44;97.68;100815.98;3719641;77;99239;-85
2022/10/11 02:19:28;;;;;;;20.10;10.93;;;;;;;10.52;98.18;100822.63;3731061;79;31977;-85
2022/10/11 02:24:36;;;;;;;19.17;10.58;;;;;;;10.61;98.28;100816.30;3701827;79;98819;-84
2022/10/11 02:29:41;;;;;;;15.68;9.95;;;;;;;10.69;98.29;100822.73;3641825;79;31670;-85
2022/10/11 02:34:53;;;;;;;12.80;7.92;;;;;;;10.78;98.21;100834.27;3698541;78;99258;-85
2022/10/11 02:39:59;;;;;;;15.50;9.05;;;;;;;10.84;98.12;100826.70;3737817;78;32306;-85
2022/10/11 02:45:03;;;;;;;;;;;;;;;10.90;98.29;100829.96;3756027;77;98952;-85
2022/10/11 02:50:05;;;;;;;16.70;8.53;;;;;;;10.95;98.80;100840.06;3793155;77;31639;-84
2022/10/11 02:55:08;;;;;;;16.07;9.05;;;;;;;10.97;98.26;100849.34;3809386;76;98894;-85
2022/10/11 03:00:10;;;;;;;14.65;8.25;;;;;;;10.97;98.23;100847.97;3852015;76;31643;-85
2022/10/11 03:05:11;;;;;;;13.30;8.13;;;;;;;10.97;97.88;100858.98;3829300;76;99207;-84
2022/10/11 03:10:12;;;;;;;12.73;7.27;;;;;;;10.94;97.98;100856.95;3845236;76;26113;-85
2022/10/11 03:15:13;;;;;;;14.83;7.60;;;;;;;10.86;98.04;100878.06;3835665;76;98848;-85
2022/10/11 03:20:14;;;;;;;13.87;6.87;;;;;;;10.86;98.04;100878.06;3835195;76;26013;-85
2022/10/11 03:25:16;;;;;;;13.77;6.63;;;;;;;10.82;97.91;100887.44;3835567;76;98929;-85
2022/10/11 03:30:17;;;;;;;13.57;5.97;;;;;;;10.75;97.74;100895.58;3846628;76;26207;-85
2022/10/11 03:35:18;;;;;;;12.60;6.00;;;;;;;10.66;97.98;100908.21;3827361;76;98999;-85
2022/10/11 03:40:19;;;;;;;13.10;5.37;;;;;;;10.57;97.29;100915.89;3869842;76;34797;-85
2022/10/11 03:45:20;;;;;;;14.93;4.77;;;;;;;10.48;97.21;100919.45;3823383;76;98918;-85
2022/10/11 03:50:21;;;;;;;14.90;5.53;;;;;;;10.40;96.87;100932.06;3835285;76;34862;-85
2022/10/11 03:55:22;;;;;;;13.37;5.07;;;;;;;10.29;96.80;100942.06;3827171;76;98605;-84
2022/10/11 04:00:23;;;;;;;10.83;4.20;;;;;;;10.19;96.86;100957.19;3826555;76;35309;-85
2022/10/11 04:05:24;;;;;;;11.13;4.10;;;;;;;10.10;96.60;100964.07;3810386;76;98542;-85
2022/10/11 04:10:25;;;;;;;9.13;4.07;;;;;;;9.99;96.42;100963.83;3829586;76;34852;-85
2022/10/11 04:15:26;;;;;;;6.97;3.20;;;;;;;9.91;96.18;100984.62;3818260;76;98293;-85
2022/10/11 04:20:26;;;;;;;10.20;3.63;;;;;;;9.83;95.99;100982.88;3820086;76;27152;-85
2022/10/11 04:25:27;;;;;;;9.37;2.97;;;;;;;9.72;95.95;100999.14;3802386;76;98323;-85
2022/10/11 04:30:29;;;;;;;11.10;3.23;;;;;;;9.66;96.01;100995.64;3816099;76;33870;-85
2022/10/11 04:35:29;;;;;;;7.97;2.90;;;;;;;9.59;95.85;101007.25;3776722;76;98699;-85
2022/10/11 04:40:31;;;;;;;6.80;2.70;;;;;;;9.51;95.79;101011.00;3794305;76;25860;-85
2022/10/11 04:45:32;;;;;;;7.93;3.10;;;;;;;9.49;96.31;101022.12;3767646;76;98486;-85
2022/10/11 04:50:33;;;;;;;8.63;3.13;;;;;;;9.45;96.23;101026.72;3779827;76;32537;-85
2022/10/11 04:55:33;;;;;;;13.67;3.57;;;;;;;9.44;96.31;101033.37;3784155;76;98671;-83
2022/10/11 05:00:34;;;;;;;6.80;2.70;;;;;;;9.42;96.45;101038.41;3802857;77;32424;-84
2022/10/11 05:05:35;;;;;;;15.70;6.00;;;;;;;9.41;96.78;101043.69;3801823;76;98280;-84
2022/10/11 05:10:36;;;;;;;12.82;3.67;;;;;;;9.42;96.93;101048.83;3801666;76;32956;-84
2022/10/11 05:15:36;;;;;;;9.33;2.93;;;;;;;9.43;97.36;101053.77;3789458;76;99113;-85
2022/10/11 05:20:37;;;;;;;11.43;3.20;;;;;;;9.45;97.48;101060.50;3807625;76;25974;-84
2022/10/11 05:25:39;;;;;;;10.73;3.00;;;;;;;9.46;97.49;101073.64;3779641;76;98831;-84
2022/10/11 05:30:40;;;;;;;10.40;3.03;;;;;;;9.44;97.48;101077.33;3792141;77;25847;-84
2022/10/11 05:35:41;;;;;;;9.10;2.80;;;;;;;9.39;97.31;101092.11;3810947;76;98553;-84
2022/10/11 05:40:42;;;;;;;9.83;2.77;;;;;;;9.36;97.33;101097.52;3812077;76;25950;-84
2022/10/11 05:45:44;;;;;;;8.53;3.03;;;;;;;9.34;97.09;101103.95;3814146;76;98405;-83
2022/10/11 05:50:45;;;;;;;13.57;3.87;;;;;;;9.28;96.95;101107.51;3834732;76;25975;-83
2022/10/11 05:55:45;;;;;;;10.40;3.60;;;;;;;9.24;96.91;101123.12;3828784;76;98915;-83
2022/10/11 06:00:46;;;;;;;16.67;8.03;;;;;;;9.23;97.08;101135.82;3831264;75;25726;-83
2022/10/11 06:05:48;;;;;;;18.40;7.93;;;;;;;9.16;96.96;101137.78;3815602;76;98525;-83
2022/10/11 06:10:48;;;;;;;27.30;12.57;;;;;;;9.10;96.99;101152.92;3823493;75;26183;-84
2022/10/11 06:15:50;;;;;;;30.67;17.83;;;;;;;9.07;97.26;101158.31;3834090;75;98778;-84
2022/10/11 06:20:50;;;;;;;22.46;12.14;;;;;;;9.06;97.16;101169.86;3830194;76;26029;-83
2022/10/11 06:26:05;;;;;;;14.97;4.57;;;;;;;9.01;97.27;101175.63;3821707;76;98693;-83
2022/10/11 06:31:06;;;;;;;15.13;4.90;;;;;;;9.01;97.27;101187.98;3830437;75;26450;-83
2022/10/11 06:36:12;;;;;;;10.58;3.72;;;;;;;9.00;97.49;101196.56;3829005;75;98583;-83
2022/10/11 06:41:24;;;;;;;14.97;3.47;;;;;;;9.00;97.71;101208.91;3822928;76;26535;-83
2022/10/11 06:46:27;;;;;;;14.63;3.73;;;;;;;9.01;97.98;101221.48;3816214;76;98795;-84
2022/10/11 06:51:29;;;;;;;11.87;2.90;;;;;;;9.05;98.59;101223.77;3849777;75;26477;-84
2022/10/11 06:56:30;;;;;;;19.57;4.55;;;;;;;9.15;98.87;101232.31;3838036;75;98347;-84
2022/10/11 07:01:32;;;;;;;13.67;3.93;;;;;;;9.25;99.05;101231.83;3838539;75;26465;-83
2022/10/11 07:06:37;;;;;;;13.23;3.37;;;;;;;9.45;99.39;101249.27;3823788;75;98330;-84
2022/10/11 07:11:38;;;;;;;16.48;3.60;;;;;;;9.65;98.91;101246.31;3833554;75;26422;-84
2022/10/11 07:16:38;;;;;;;16.73;4.17;;;;;;;9.81;98.70;101254.61;3819451;75;98557;-84
2022/10/11 07:21:39;;;;;;;19.50;4.97;;;;;;;9.99;98.69;101257.25;3837820;75;32858;-84
2022/10/11 07:26:41;;;;;;;19.37;4.37;;;;;;;10.21;98.52;101267.69;3827878;75;99061;-84
2022/10/11 07:31:42;;;;;;;11.27;3.47;;;;;;;10.42;98.44;101277.86;3824128;75;32902;-84
2022/10/11 07:36:43;;;;;;;15.77;3.97;;;;;;;10.64;98.47;101282.73;3822600;76;98632;-84
2022/10/11 07:41:44;;;;;;;11.50;3.52;;;;;;;10.86;97.87;101295.86;3820087;75;26361;-84
2022/10/11 07:46:45;;;;;;;14.13;3.93;;;;;;;11.05;97.47;101296.70;3829763;75;98946;-82
2022/10/11 07:51:46;;;;;;;13.37;4.33;;;;;;;11.21;96.69;101314.00;3842518;75;33386;-82
2022/10/11 07:56:47;;;;;;;14.07;3.60;;;;;;;11.35;96.33;101314.30;3796316;75;98723;-84
2022/10/11 08:01:47;;;;;;;13.22;4.20;;;;;;;11.47;95.56;101323.83;3807151;75;33421;-83
2022/10/11 08:06:48;;;;;;;15.90;4.83;;;;;;;11.62;95.42;101327.12;3791150;75;98898;-84
2022/10/11 08:11:49;;;;;;;15.50;4.40;;;;;;;11.78;94.95;101333.97;3827672;75;31716;-82
2022/10/11 08:16:50;;;;;;;11.33;3.87;;;;;;;11.92;94.34;101336.99;3801780;75;98885;-83
2022/10/11 08:21:51;;;;;;;11.30;3.65;;;;;;;12.05;93.90;101342.00;3823298;75;31595;-83
2022/10/11 08:26:51;;;;;;;14.97;3.97;;;;;;;12.14;93.04;101345.91;3673264;78;98937;-83
2022/10/11 08:31:52;;;;;;;14.30;4.70;;;;;;;12.25;92.96;101341.38;3660850;79;31879;-83
2022/10/11 08:36:53;;;;;;;11.83;4.50;;;;;;;12.38;92.46;101337.30;3666653;79;98819;-83
2022/10/11 08:42:04;;;;;;;15.48;4.00;;;;;;;12.53;92.28;101339.94;3679743;79;31975;-83
2022/10/11 08:47:29;;;;;;;10.95;3.77;;;;;;;12.76;92.08;101338.56;3675641;79;98842;-84
2022/10/11 08:52:47;;;;;;;13.80;3.62;;;;;;;13.07;92.19;101339.10;3652623;78;99065;-84
2022/10/11 08:57:53;;;;;;;9.28;2.90;;;;;;;13.51;92.00;101351.20;3661380;80;31622;-84
2022/10/11 09:03:41;;;;;;;18.55;4.92;;;;;;;13.93;91.39;101357.88;3660014;77;98810;-84
2022/10/11 09:09:05;;;;;;;15.35;3.90;;;;;;;14.30;90.39;101354.58;3761705;77;32190;-84
2022/10/11 09:14:37;;;;;;;22.10;4.42;;;;;;;14.87;90.04;101357.51;3712851;77;99024;-83
2022/10/11 09:19:53;;;;;;;13.78;3.80;;;;;;;15.35;88.50;101366.03;3748638;78;31718;-84
2022/10/11 09:25:13;;;;;;;18.75;3.47;;;;;;;15.75;86.63;101372.02;3742174;77;98855;-83
2022/10/11 09:30:18;;;;;;;14.47;4.37;;;;;;;16.02;85.04;101366.39;3744545;78;31900;-83
2022/10/11 09:35:21;;;;;;;9.78;2.62;;;;;;;16.47;83.37;101367.14;3742274;78;99121;-84
2022/10/11 09:40:39;;;;;;;9.23;2.95;;;;;;;16.90;81.98;101362.61;3745207;78;31627;-84
2022/10/11 09:45:45;;;;;;;12.55;2.58;;;;;;;17.38;80.57;101358.23;3718215;78;99031;-83
2022/10/11 09:50:46;;;;;;;13.95;2.33;;;;;;;17.92;77.78;101361.08;3745834;77;26347;-83
2022/10/11 09:55:56;;;;;;;12.18;2.47;;;;;;;18.16;74.95;101358.77;3748155;77;98931;-85
2022/10/11 10:01:05;;;;;;;17.23;3.17;;;;;;;18.21;74.67;101359.74;3745576;78;31660;-85
2022/10/11 10:06:26;;;;;;;9.17;2.07;;;;;;;18.20;71.74;101358.16;3725143;77;98853;-85
2022/10/11 10:11:32;;;;;;;8.43;1.95;;;;;;;18.18;72.42;101360.54;3725668;77;32258;-85
2022/10/11 10:16:36;;;;;;;8.48;1.80;;;;;;;18.24;72.68;101365.30;3677674;78;98657;-85
2022/10/11 10:21:47;;;;;;;12.60;3.45;;;;;;;18.28;71.25;101363.88;3657102;78;32877;-85
2022/10/11 10:27:16;;;;;;;10.50;2.47;;;;;;;17.91;69.45;101373.39;3664027;79;98734;-85
2022/10/11 10:32:25;;;;;;;11.70;2.58;;;;;;;17.80;69.80;101372.05;3751115;77;31619;-85
2022/10/11 10:37:33;;;;;;;9.73;2.33;;;;;;;17.82;69.12;101380.79;3680558;78;99054;-86
2022/10/11 10:42:34;;;;;;;8.93;1.98;;;;;;;17.96;68.22;101379.94;3692479;78;98325;-86
2022/10/11 10:47:59;;;;;;;8.00;1.83;;;;;;;17.75;67.50;101382.21;3732658;78;28864;-85
2022/10/11 10:53:30;;;;;;;7.78;1.90;;;;;;;17.59;66.58;101388.81;3691932;78;98790;-84
2022/10/11 10:59:04;;;;;;;7.28;1.70;;;;;;;17.36;66.40;101387.62;3693497;78;31681;-86
2022/10/11 11:04:28;;;;;;;9.65;1.62;;;;;;;17.25;65.89;101387.66;3679040;79;98849;-86
2022/10/11 11:09:46;;;;;;;7.20;1.95;;;;;;;17.18;64.82;101387.66;3683749;79;31665;-86
2022/10/11 11:15:03;;;;;;;6.10;1.72;;;;;;;17.11;64.54;101393.20;3659960;79;98870;-85
2022/10/11 11:20:39;;;;;;;8.85;1.72;;;;;;;17.13;63.43;101385.28;3699895;78;31652;-85
2022/10/11 11:25:48;;;;;;;8.43;1.50;;;;;;;17.02;63.19;101396.20;3703458;79;98442;-85
2022/10/11 11:31:11;;;;;;;13.03;2.10;;;;;;;16.91;61.02;101392.61;3724378;79;31666;-84
2022/10/11 11:36:17;;;;;;;6.60;1.77;;;;;;;16.82;61.46;101394.40;3720139;78;98826;-85
2022/10/11 11:41:36;;;;;;;11.48;2.02;;;;;;;16.89;62.37;101384.66;3729648;78;43358;-84
2022/10/11 11:47:02;;;;;;;8.33;1.85;;;;;;;17.03;62.41;101383.88;3735179;77;98491;-84
2022/10/11 11:52:07;;;;;;;7.35;1.50;;;;;;;17.24;62.32;101388.84;3705573;78;25821;-87
2022/10/11 11:57:57;;;;;;;9.20;1.70;;;;;;;17.36;61.09;101387.62;3690564;79;98699;-85
2022/10/11 12:03:06;;;;;;;10.93;2.30;;;;;;;17.37;60.15;101383.06;3700488;79;98501;-84
2022/10/11 12:08:15;;;;;;;9.78;1.85;;;;;;;17.56;62.34;101395.17;3705059;79;32276;-84
2022/10/11 12:13:33;;;;;;;9.50;1.87;;;;;;;17.66;61.25;101387.40;3694741;79;98877;-85
2022/10/11 12:18:57;;;;;;;6.45;1.67;;;;;;;17.66;61.85;101386.00;3690545;79;31673;-85
2022/10/11 12:24:21;;;;;;;6.35;1.65;;;;;;;17.80;62.63;101385.17;3698614;79;98567;-85
2022/10/11 12:29:42;;;;;;;8.05;1.85;;;;;;;17.85;62.39;101391.72;3697371;79;32413;-85
2022/10/11 12:34:44;;;;;;;8.23;2.37;;;;;;;17.68;61.75;101388.39;3689929;79;99193;-84
2022/10/11 12:39:57;;;;;;;6.05;1.40;;;;;;;17.51;59.72;101382.27;3695920;79;32241;-84
2022/10/11 12:45:15;;;;;;;10.38;2.20;;;;;;;17.27;59.12;101392.20;3701054;79;98804;-85
2022/10/11 12:50:41;;;;;;;8.38;1.95;;;;;;;17.01;58.12;101393.22;3724637;78;32272;-85
2022/10/11 12:55:53;;;;;;;7.22;1.47;;;;;;;16.86;58.55;101404.13;3695362;78;98891;-84
2022/10/11 13:01:00;;;;;;;8.65;1.90;;;;;;;16.67;58.74;101395.56;3647188;80;31634;-84
2022/10/11 13:06:18;;;;;;;9.08;1.85;;;;;;;16.43;57.48;101393.53;3697560;77;98615;-83
2022/10/11 13:11:24;;;;;;;8.53;1.50;;;;;;;16.31;57.10;101388.31;3722644;77;26500;-84
2022/10/11 13:16:28;;;;;;;;;;;;;;;16.25;57.92;101394.64;3729600;77;98548;-84
2022/10/11 13:21:35;;;;;;;8.58;2.65;;;;;;;16.17;55.66;101388.84;3733145;77;31696;-84
2022/10/11 13:26:37;;;;;;;5.75;2.10;;;;;;;16.10;57.20;101392.41;3718070;77;98647;-85
2022/10/11 13:31:40;;;;;;;10.72;2.98;;;;;;;16.08;58.30;101393.37;3692405;77;31713;-85
2022/10/11 13:36:41;;;;;;;5.70;1.70;;;;;;;16.15;58.74;101392.03;3716256;77;98880;-85
2022/10/11 13:41:42;;;;;;;9.93;1.95;;;;;;;16.20;57.95;101400.56;3705584;77;32287;-85
2022/10/11 13:46:43;;;;;;;7.70;1.90;;;;;;;16.20;58.06;101399.98;3725076;77;98287;-85
2022/10/11 13:51:49;;;;;;;7.53;1.70;;;;;;;16.13;58.23;101406.88;3704110;77;28084;-85
2022/10/11 13:56:54;;;;;;;7.55;2.17;;;;;;;16.10;58.56;101402.13;3593548;80;98634;-85
2022/10/11 14:02:00;;;;;;;6.72;1.70;;;;;;;16.07;58.46;101402.12;3609835;81;31696;-85
2022/10/11 14:07:02;;;;;;;8.58;1.85;;;;;;;15.98;57.51;101406.61;3693529;79;98434;-85
2022/10/11 14:12:31;;;;;;;6.87;1.55;;;;;;;15.85;57.28;101401.20;3704582;77;31720;-84
2022/10/11 14:17:43;;;;;;;9.55;2.62;;;;;;;15.70;58.40;101403.69;3703595;79;31776;-85
2022/10/11 14:22:43;;;;;;;7.42;1.90;;;;;;;15.57;58.50;101398.86;3703562;78;98497;-85
2022/10/11 14:27:44;;;;;;;7.70;2.33;;;;;;;15.41;58.57;101408.87;3698699;79;29092;-84
2022/10/11 14:32:48;;;;;;;12.20;3.17;;;;;;;15.29;59.13;101410.53;3710939;78;98747;-85
2022/10/11 14:37:49;;;;;;;10.65;3.25;;;;;;;15.20;58.93;101405.12;3732791;78;31619;-85
2022/10/11 14:42:50;;;;;;;9.35;2.22;;;;;;;15.08;58.90;101395.69;3725778;78;98930;-85
2022/10/11 14:47:51;;;;;;;10.07;2.40;;;;;;;14.98;59.17;101406.13;3726853;78;26604;-85
2022/10/11 14:52:52;;;;;;;12.43;2.30;;;;;;;14.75;58.31;101397.98;3664684;79;99101;-85
2022/10/11 14:57:54;;;;;;;8.27;2.20;;;;;;;14.75;58.31;101397.98;3673517;79;26400;-85
2022/10/11 15:02:55;;;;;;;10.58;2.90;;;;;;;14.62;58.27;101412.50;3671810;79;98850;-85
2022/10/11 15:07:56;;;;;;;11.20;2.20;;;;;;;14.50;58.50;101412.16;3675049;79;26519;-83
2022/10/11 15:12:57;;;;;;;8.00;2.52;;;;;;;14.41;59.73;101408.11;3655757;79;98986;-83
2022/10/11 15:18:00;;;;;;;9.63;2.80;;;;;;;14.28;59.97;101419.25;3655961;79;26521;-84
2022/10/11 15:23:02;;;;;;;9.97;2.87;;;;;;;14.17;60.61;101421.84;3653537;78;98866;-84
2022/10/11 15:28:04;;;;;;;9.45;2.67;;;;;;;14.05;61.89;101424.86;3681937;79;29849;-86
2022/10/11 15:33:05;;;;;;;10.30;3.05;;;;;;;13.97;62.89;101430.69;3672902;79;98526;-86
2022/10/11 15:38:09;;;;;;;12.93;3.00;;;;;;;13.85;63.56;101430.31;3674464;79;26893;-87
2022/10/11 15:43:09;;;;;;;11.50;3.22;;;;;;;13.76;64.15;101438.69;3644380;78;98680;-87
2022/10/11 15:48:17;;;;;;;11.03;3.33;;;;;;;13.59;64.80;101433.13;3671490;79;26886;-87
2022/10/11 15:53:24;;;;;;;31.20;14.85;;;;;;;13.42;65.77;101439.77;3705174;78;99110;-87
2022/10/11 15:58:29;;;;;;;48.33;25.77;;;;;;;13.28;66.41;101442.30;3707390;78;31540;-86
2022/10/11 16:03:31;;;;;;;106.20;57.15;;;;;;;13.11;67.26;101442.80;3702224;78;99359;-86
2022/10/11 16:08:33;;;;;;;80.10;42.03;;;;;;;12.96;67.90;101455.58;3710375;78;31702;-85
2022/10/11 16:13:36;;;;;;;46.85;28.67;;;;;;;12.81;68.49;101459.22;3704159;78;98740;-86
2022/10/11 16:18:38;;;;;;;21.95;11.45;;;;;;;12.62;68.88;101464.79;3686092;78;32272;-84
2022/10/11 16:23:39;;;;;;;18.70;9.95;;;;;;;12.43;69.75;101462.03;3683812;78;99234;-84
2022/10/11 16:28:40;;;;;;;24.10;11.17;;;;;;;12.28;69.94;101463.50;3679951;79;26316;-85
2022/10/11 16:33:47;;;;;;;20.70;9.63;;;;;;;12.08;70.70;101462.69;3663886;79;99257;-86
2022/10/11 16:38:48;;;;;;;19.98;8.80;;;;;;;11.95;71.36;101468.11;3618785;80;31691;-86
2022/10/11 16:43:53;;;;;;;25.13;9.23;;;;;;;11.80;71.97;101468.97;3634376;80;99121;-86
2022/10/11 16:48:55;;;;;;;24.73;12.10;;;;;;;11.64;72.29;101477.05;3626344;81;26271;-86
2022/10/11 16:53:56;;;;;;;33.27;13.73;;;;;;;11.51;72.74;101471.40;3611604;80;99040;-86
2022/10/11 16:58:57;;;;;;;30.20;14.90;;;;;;;11.36;73.12;101488.74;3624752;80;25900;-86
2022/10/11 17:03:57;;;;;;;39.13;17.50;;;;;;;11.22;73.55;101482.30;3625336;79;99128;-86
2022/10/11 17:08:58;;;;;;;37.03;15.40;;;;;;;11.08;74.05;101486.09;3625660;81;25802;-87
2022/10/11 17:14:01;;;;;;;36.38;15.75;;;;;;;10.95;74.31;101489.28;3644883;79;99145;-86
2022/10/11 17:19:02;;;;;;;36.03;16.17;;;;;;;10.83;74.52;101488.76;3671475;79;34913;-86
2022/10/11 17:24:03;;;;;;;37.93;18.13;;;;;;;10.69;75.03;101496.62;3653414;79;99182;-87
2022/10/11 17:29:04;;;;;;;37.80;19.50;;;;;;;10.57;75.48;101497.28;3663300;79;35823;-86
2022/10/11 17:34:05;;;;;;;42.47;20.90;;;;;;;10.48;75.73;101498.78;3674369;79;122861;-86
2022/10/11 17:39:13;;;;;;;38.33;19.70;;;;;;;10.34;76.09;101499.77;3798492;76;34860;-86
2022/10/11 17:44:17;;;;;;;36.75;18.07;;;;;;;10.25;76.53;101505.98;3786999;76;99240;-87
2022/10/11 17:49:18;;;;;;;33.18;16.12;;;;;;;10.16;76.78;101508.09;3787819;76;98865;-87
2022/10/11 17:54:19;;;;;;;34.03;15.83;;;;;;;10.06;77.19;101508.56;3811377;76;25775;-86
2022/10/11 17:59:26;;;;;;;45.53;22.10;;;;;;;9.99;77.50;101517.14;3812424;76;98804;-86
2022/10/11 18:04:29;;;;;;;57.40;30.90;;;;;;;9.88;77.70;101513.27;3827318;76;32352;-87
2022/10/11 18:09:31;;;;;;;53.45;26.52;;;;;;;9.80;78.01;101519.67;3849628;76;98729;-86
2022/10/11 18:14:31;;;;;;;48.40;22.80;;;;;;;9.70;78.26;101520.95;3857531;75;32808;-87
2022/10/11 18:19:32;;;;;;;35.53;15.07;;;;;;;9.62;78.52;101520.50;3809957;76;98649;-86
2022/10/11 18:24:33;;;;;;;28.27;12.83;;;;;;;9.52;78.72;101523.70;3798261;76;32999;-87
2022/10/11 18:29:35;;;;;;;27.90;12.80;;;;;;;9.44;78.92;101524.60;3778638;76;98717;-87
2022/10/11 18:34:35;;;;;;;27.57;12.77;;;;;;;9.37;79.25;101530.45;3757463;77;26474;-87
2022/10/11 18:39:36;;;;;;;28.73;12.67;;;;;;;9.30;79.35;101528.83;3781087;76;98476;-86
2022/10/11 18:44:37;;;;;;;34.13;16.57;;;;;;;9.21;79.46;101537.17;3772848;76;35131;-86
2022/10/11 18:49:38;;;;;;;32.38;16.25;;;;;;;9.11;79.75;101530.74;3771063;76;98609;-86
2022/10/11 18:54:39;;;;;;;32.90;16.65;;;;;;;9.05;80.03;101535.44;3768232;77;98854;-86
2022/10/11 18:59:40;;;;;;;40.37;18.53;;;;;;;8.97;80.15;101533.02;3758567;78;26322;-86
2022/10/11 19:04:40;;;;;;;41.80;18.87;;;;;;;8.88;80.34;101525.42;3768380;77;98789;-86
2022/10/11 19:09:42;;;;;;;46.70;21.50;;;;;;;8.84;80.63;101530.57;3768553;77;25740;-87
2022/10/11 19:14:43;;;;;;;45.73;22.07;;;;;;;8.76;80.65;101528.70;3764881;76;98822;-87
2022/10/11 19:19:44;;;;;;;46.60;20.33;;;;;;;8.69;80.97;101530.64;3776135;76;26477;-86
2022/10/11 19:24:44;;;;;;;45.15;19.85;;;;;;;8.63;81.14;101526.50;3755585;78;98578;-86
2022/10/11 19:29:45;;;;;;;40.80;17.97;;;;;;;8.58;81.34;101529.45;3774610;76;33038;-85
2022/10/11 19:34:46;;;;;;;36.93;17.50;;;;;;;8.53;81.62;101535.15;3762799;76;98632;-85
2022/10/11 19:39:47;;;;;;;39.05;17.10;;;;;;;8.46;81.74;101527.22;3755161;77;30030;-85
2022/10/11 19:44:48;;;;;;;36.38;16.70;;;;;;;8.42;81.88;101529.84;3762280;77;98744;-87
2022/10/11 19:49:48;;;;;;;33.53;15.27;;;;;;;8.37;82.10;101531.41;3759344;76;98367;-86
2022/10/11 19:54:49;;;;;;;30.40;13.20;;;;;;;8.32;81.91;101534.91;3800149;75;26745;-86
2022/10/11 19:59:50;;;;;;;23.87;11.73;;;;;;;8.12;82.35;101523.36;3795232;75;98276;-87
2022/10/11 20:04:51;;;;;;;29.57;10.57;;;;;;;8.16;82.41;101539.36;3803204;75;25927;-86
2022/10/11 20:09:52;;;;;;;26.00;10.38;;;;;;;8.12;82.65;101538.44;3785617;75;98697;-86
2022/10/11 20:14:52;;;;;;;26.50;9.77;;;;;;;8.08;82.76;101538.86;3802526;75;26038;-86
2022/10/11 20:19:53;;;;;;;23.53;9.03;;;;;;;8.03;82.86;101536.31;3785773;75;98312;-86
2022/10/11 20:24:54;;;;;;;20.77;8.78;;;;;;;7.98;82.88;101546.10;3809187;75;25836;-86
2022/10/11 20:29:55;;;;;;;24.00;10.00;;;;;;;7.92;83.10;101539.21;3791644;75;98249;-86
2022/10/11 20:34:55;;;;;;;23.53;9.57;;;;;;;7.85;83.16;101542.47;3786487;75;33117;-86
2022/10/11 20:39:56;;;;;;;20.72;10.32;;;;;;;7.81;83.32;101542.88;3789292;77;98655;-87
2022/10/11 20:44:57;;;;;;;23.70;12.17;;;;;;;7.75;83.42;101539.31;3791600;75;33585;-85
2022/10/11 20:49:58;;;;;;;24.30;9.93;;;;;;;7.71;83.67;101533.70;3780454;77;98651;-86
2022/10/11 20:54:59;;;;;;;24.40;10.87;;;;;;;7.68;83.75;101533.56;3771255;77;32988;-86
2022/10/11 21:00:00;;;;;;;23.95;11.70;;;;;;;7.63;83.88;101534.53;3774988;77;98638;-86
2022/10/11 21:05:01;;;;;;;24.50;12.37;;;;;;;7.53;84.00;101540.97;3762316;77;33430;-86
2022/10/11 21:10:02;;;;;;;28.77;12.90;;;;;;;7.53;84.00;101540.97;3767656;77;99055;-85
2022/10/11 21:15:03;;;;;;;27.50;14.00;;;;;;;7.47;84.06;101541.70;3779909;77;31596;-85
2022/10/11 21:20:05;;;;;;;28.23;13.27;;;;;;;7.43;84.24;101539.41;3779191;77;98308;-85
2022/10/11 21:25:06;;;;;;;27.60;12.75;;;;;;;7.38;84.32;101542.33;3789336;77;32885;-85
2022/10/11 21:30:08;;;;;;;25.90;12.50;;;;;;;7.34;84.50;101545.47;3765644;77;98710;-85
2022/10/11 21:35:09;;;;;;;25.40;12.63;;;;;;;7.31;84.62;101549.44;3755858;77;32236;-86
2022/10/11 21:40:10;;;;;;;24.70;13.17;;;;;;;7.25;84.60;101557.59;3812156;76;98443;-85
2022/10/11 21:45:11;;;;;;;21.97;10.57;;;;;;;7.20;84.77;101558.55;3830954;76;32208;-86
2022/10/11 21:50:12;;;;;;;26.27;12.40;;;;;;;7.15;84.85;101560.69;3814572;75;98274;-86
2022/10/11 21:55:12;;;;;;;28.07;12.70;;;;;;;7.11;84.94;101558.34;3814807;75;32151;-86
2022/10/11 22:00:13;;;;;;;25.53;11.83;;;;;;;7.04;84.94;101557.47;3819969;76;98581;-86
2022/10/11 22:05:14;;;;;;;21.27;10.70;;;;;;;7.01;85.17;101561.43;3750161;77;31791;-86
2022/10/11 22:10:15;;;;;;;32.03;12.60;;;;;;;6.98;85.28;101561.52;3677383;78;98536;-86
2022/10/11 22:15:16;;;;;;;29.57;13.93;;;;;;;6.93;85.33;101560.31;3693178;78;31596;-86
2022/10/11 22:20:17;;;;;;;28.10;15.33;;;;;;;6.89;85.46;101566.22;3674686;78;98374;-86
2022/10/11 22:25:18;;;;;;;35.80;20.80;;;;;;;6.84;85.47;101554.63;3700220;79;26502;-86
2022/10/11 22:30:18;;;;;;;34.30;22.33;;;;;;;6.79;85.56;101557.53;3649345;79;98714;-85
2022/10/11 22:35:19;;;;;;;45.30;23.43;;;;;;;6.74;85.72;101549.48;3671728;80;34940;-86
2022/10/11 22:40:20;;;;;;;37.45;24.60;;;;;;;6.68;85.65;101555.70;3649781;80;98669;-86
2022/10/11 22:45:21;;;;;;;35.70;21.97;;;;;;;6.64;85.80;101554.73;3626909;80;34896;-86
2022/10/11 22:50:22;;;;;;;31.65;17.82;;;;;;;6.60;85.92;101556.50;3666491;79;98666;-85
2022/10/11 22:55:24;;;;;;;30.12;15.20;;;;;;;6.56;86.02;101559.66;3696852;79;36175;-86
2022/10/11 23:00:25;;;;;;;25.08;12.70;;;;;;;6.51;86.18;101555.72;3685922;79;98572;-86
2022/10/11 23:05:26;;;;;;;25.40;12.23;;;;;;;6.47;86.20;101556.11;3677771;80;27259;-85
2022/10/11 23:10:27;;;;;;;26.13;13.07;;;;;;;6.44;86.11;101550.49;3693660;79;98282;-86
2022/10/11 23:15:28;;;;;;;26.33;13.37;;;;;;;6.39;86.30;101556.91;3700435;79;32523;-86
2022/10/11 23:20:29;;;;;;;28.40;13.30;;;;;;;6.35;86.25;101560.61;3682962;79;98309;-86
2022/10/11 23:25:30;;;;;;;26.17;14.53;;;;;;;6.31;86.42;101567.29;3700926;79;32557;-86
2022/10/11 23:30:30;;;;;;;28.30;13.93;;;;;;;6.30;86.53;101564.87;3688030;79;98615;-86